Terminal Aerodrome Forecast
Issued by NWS Wilmington, OH

Current Version | Previous Version | Graphics & Text | Print | Product List | Glossary On
Versions: 1 2 3 4 5 6 7 8 9 10 11 12 13 14 15 16 17 18 19
269
FTUS41 KILN 090532
TAFILN
TAF
KILN 090532Z 0906/1006 28012G20KT 1SM -SN OVC015
      TEMPO 0906/0910 1/2SM SN OVC008
     FM091200 28014G20KT 4SM -SN OVC015
     FM091700 27014G24KT P6SM -SHSN OVC022
     FM100000 27012G20KT 5SM -SHSN OVC025=

USA.gov is the U.S. government's official web portal to all federal, state and local government web resources and services.